Csl Argosy — C6UZ9 — position and weather

sailwx.info

Track history (hours):
 
Tides and Currents Weather Stations Pressure Air Temp Water Temp Dewpoint Dewpoint Depression Visibility Wind Speed Wind Dir Waves Ship Positions

Csl Argosy

Last reported at 2015-Jan-26 03:32 UTC. Time now 2015-Jan-26 04:25 UTC.
Position N 48°23' W 004°27'.

Length 244 m; draft 8.3 m.

Type: Cargo ship. MMSI: 308299000.

Date/timePositionNaut miles runAvg speedWind from/ knotsBaromVisibWave heightAir tempDewpointWater temp
2015-Jan-26 03:32N 48°23' W 004°27'0 0.0
2015-Jan-26 02:31N 48°23' W 004°27'0 0.0
2015-Jan-26 01:31N 48°23' W 004°27'0 0.0
2015-Jan-26 00:32N 48°23' W 004°27'0 0.0
2015-Jan-25 23:32N 48°23' W 004°27'0 0.0
2015-Jan-25 22:32N 48°23' W 004°27'0 0.0
2015-Jan-25 21:33N 48°23' W 004°27'0 0.0
2015-Jan-25 20:33N 48°23' W 004°27'0 0.0
2015-Jan-25 19:33N 48°23' W 004°27'0 0.0
2015-Jan-25 18:33N 48°23' W 004°27'0 0.0
2015-Jan-25 17:33N 48°23' W 004°27'0 0.0
2015-Jan-25 16:33N 48°23' W 004°27'0 0.0
2015-Jan-25 15:33N 48°23' W 004°27'0 0.0
2015-Jan-25 14:33N 48°23' W 004°27'0 0.0
2015-Jan-25 13:33N 48°23' W 004°27'0 0.0
2015-Jan-25 12:33N 48°23' W 004°27'0 0.0
2015-Jan-25 11:33N 48°23' W 004°27'0 0.0
2015-Jan-25 10:33N 48°23' W 004°27'0 0.0
2015-Jan-25 09:33N 48°23' W 004°27'0 0.0
2015-Jan-25 08:33N 48°23' W 004°27'0 0.0
2015-Jan-25 07:33N 48°23' W 004°27'0 0.0
2015-Jan-25 06:33N 48°23' W 004°27'0 0.0
2015-Jan-25 05:33N 48°23' W 004°27'0 0.0
2015-Jan-25 04:33N 48°23' W 004°27'0 0.0
2015-Jan-25 03:33N 48°23' W 004°27'0 0.0
2015-Jan-25 02:33N 48°23' W 004°27'0 0.0
2015-Jan-25 01:30N 48°23' W 004°27'0 0.0
2015-Jan-25 00:33N 48°23' W 004°27'0 0.0
2015-Jan-24 23:33N 48°23' W 004°27'0 0.0
2015-Jan-24 22:33N 48°23' W 004°27'0 0.0
2015-Jan-24 21:33N 48°23' W 004°27'0 0.0
2015-Jan-24 20:33N 48°23' W 004°27'0 0.0
2015-Jan-24 19:33N 48°23' W 004°27'0 0.0
2015-Jan-24 18:33N 48°23' W 004°27'0 0.0
2015-Jan-24 17:33N 48°23' W 004°27'0 0.0
2015-Jan-24 16:33N 48°23' W 004°27'0 0.0
2015-Jan-24 15:33N 48°23' W 004°27'0 0.0
2015-Jan-24 14:33N 48°23' W 004°27'0 0.0
2015-Jan-24 13:33N 48°23' W 004°27'0 0.0
2015-Jan-24 12:33N 48°23' W 004°27'0 0.0
2015-Jan-24 11:33N 48°23' W 004°27'0 0.0
2015-Jan-24 10:33N 48°23' W 004°27'0 0.0
2015-Jan-24 09:33N 48°23' W 004°27'0 0.0
2015-Jan-24 08:33N 48°23' W 004°27'0 0.0
2015-Jan-24 07:33N 48°23' W 004°27'0 0.0
2015-Jan-24 06:33N 48°23' W 004°27'0 0.0
2015-Jan-24 05:33N 48°23' W 004°27'0 0.0
2015-Jan-24 04:33N 48°23' W 004°27'0 0.0
2015-Jan-24 03:33N 48°23' W 004°27'0 0.0
2015-Jan-24 02:33N 48°23' W 004°27'0 0.0
2015-Jan-24 01:33N 48°23' W 004°27'0 0.0
2015-Jan-24 00:33N 48°23' W 004°27'0 0.0
2015-Jan-23 23:33N 48°23' W 004°27'0 0.0
2015-Jan-23 22:33N 48°23' W 004°27'0 0.0
2015-Jan-23 21:33N 48°23' W 004°27'0 0.0
2015-Jan-23 20:33N 48°23' W 004°27'0 0.0
2015-Jan-23 19:33N 48°23' W 004°27'0 0.0
2015-Jan-23 18:33N 48°23' W 004°27'0 0.0
2015-Jan-23 17:33N 48°23' W 004°27'0 0.0
2015-Jan-23 16:33N 48°23' W 004°27'0 0.0
2015-Jan-23 15:33N 48°23' W 004°27'0 0.0
2015-Jan-23 14:33N 48°23' W 004°27'0 0.0
2015-Jan-23 13:33N 48°23' W 004°27'0 0.0
2015-Jan-23 12:33N 48°23' W 004°27'0 0.0
2015-Jan-23 11:33N 48°23' W 004°27'0 0.0
2015-Jan-23 10:33N 48°23' W 004°27'0 0.0
2015-Jan-23 09:33N 48°23' W 004°27'0 0.0
2015-Jan-23 08:33N 48°23' W 004°27'0 0.0
2015-Jan-23 07:33N 48°23' W 004°27'0 0.2
2015-Jan-23 06:34N 48°23' W 004°28'6 5.9
2015-Jan-23 05:34N 48°20' W 004°35'7 6.6
2015-Jan-23 04:34N 48°18' W 004°45'7 6.7
2015-Jan-23 03:33N 48°15' W 004°54'8 7.9
2015-Jan-23 02:33N 48°13' W 005°05'9 9.2
2015-Jan-23 01:33N 48°09' W 005°18'8 8.4
2015-Jan-23 00:33N 48°02' W 005°26'12 3.0
2015-Jan-22 20:33N 48°10' W 005°12'6 6.5
2015-Jan-22 19:33N 48°12' W 005°03'1 1.2
2015-Jan-22 18:33N 48°13' W 005°05'  
Track history (hours):
 
Tides and Currents Weather Stations Pressure Air Temp Water Temp Dewpoint Dewpoint Depression Visibility Wind Speed Wind Dir Waves Ship Positions

Csl Argosy

Last reported at 2015-Jan-26 03:32 UTC. Time now 2015-Jan-26 04:25 UTC.
Position N 48°23' W 004°27'.

Length 244 m; draft 8.3 m.

Type: Cargo ship. MMSI: 308299000.

Date/timePositionNaut miles runAvg speedWind from/ knotsBaromVisibWave heightAir tempDewpointWater temp
2015-Jan-26 03:32N 48°23' W 004°27'0 0.0
2015-Jan-26 02:31N 48°23' W 004°27'0 0.0
2015-Jan-26 01:31N 48°23' W 004°27'0 0.0
2015-Jan-26 00:32N 48°23' W 004°27'0 0.0
2015-Jan-25 23:32N 48°23' W 004°27'0 0.0
2015-Jan-25 22:32N 48°23' W 004°27'0 0.0
2015-Jan-25 21:33N 48°23' W 004°27'0 0.0
2015-Jan-25 20:33N 48°23' W 004°27'0 0.0
2015-Jan-25 19:33N 48°23' W 004°27'0 0.0
2015-Jan-25 18:33N 48°23' W 004°27'0 0.0
2015-Jan-25 17:33N 48°23' W 004°27'0 0.0
2015-Jan-25 16:33N 48°23' W 004°27'0 0.0
2015-Jan-25 15:33N 48°23' W 004°27'0 0.0
2015-Jan-25 14:33N 48°23' W 004°27'0 0.0
2015-Jan-25 13:33N 48°23' W 004°27'0 0.0
2015-Jan-25 12:33N 48°23' W 004°27'0 0.0
2015-Jan-25 11:33N 48°23' W 004°27'0 0.0
2015-Jan-25 10:33N 48°23' W 004°27'0 0.0
2015-Jan-25 09:33N 48°23' W 004°27'0 0.0
2015-Jan-25 08:33N 48°23' W 004°27'0 0.0
2015-Jan-25 07:33N 48°23' W 004°27'0 0.0
2015-Jan-25 06:33N 48°23' W 004°27'0 0.0
2015-Jan-25 05:33N 48°23' W 004°27'0 0.0
2015-Jan-25 04:33N 48°23' W 004°27'0 0.0
2015-Jan-25 03:33N 48°23' W 004°27'0 0.0
2015-Jan-25 02:33N 48°23' W 004°27'0 0.0
2015-Jan-25 01:30N 48°23' W 004°27'0 0.0
2015-Jan-25 00:33N 48°23' W 004°27'0 0.0
2015-Jan-24 23:33N 48°23' W 004°27'0 0.0
2015-Jan-24 22:33N 48°23' W 004°27'0 0.0
2015-Jan-24 21:33N 48°23' W 004°27'0 0.0
2015-Jan-24 20:33N 48°23' W 004°27'0 0.0
2015-Jan-24 19:33N 48°23' W 004°27'0 0.0
2015-Jan-24 18:33N 48°23' W 004°27'0 0.0
2015-Jan-24 17:33N 48°23' W 004°27'0 0.0
2015-Jan-24 16:33N 48°23' W 004°27'0 0.0
2015-Jan-24 15:33N 48°23' W 004°27'0 0.0
2015-Jan-24 14:33N 48°23' W 004°27'0 0.0
2015-Jan-24 13:33N 48°23' W 004°27'0 0.0
2015-Jan-24 12:33N 48°23' W 004°27'0 0.0
2015-Jan-24 11:33N 48°23' W 004°27'0 0.0
2015-Jan-24 10:33N 48°23' W 004°27'0 0.0
2015-Jan-24 09:33N 48°23' W 004°27'0 0.0
2015-Jan-24 08:33N 48°23' W 004°27'0 0.0
2015-Jan-24 07:33N 48°23' W 004°27'0 0.0
2015-Jan-24 06:33N 48°23' W 004°27'0 0.0
2015-Jan-24 05:33N 48°23' W 004°27'0 0.0
2015-Jan-24 04:33N 48°23' W 004°27'0 0.0
2015-Jan-24 03:33N 48°23' W 004°27'0 0.0
2015-Jan-24 02:33N 48°23' W 004°27'0 0.0
2015-Jan-24 01:33N 48°23' W 004°27'0 0.0
2015-Jan-24 00:33N 48°23' W 004°27'0 0.0
2015-Jan-23 23:33N 48°23' W 004°27'0 0.0
2015-Jan-23 22:33N 48°23' W 004°27'0 0.0
2015-Jan-23 21:33N 48°23' W 004°27'0 0.0
2015-Jan-23 20:33N 48°23' W 004°27'0 0.0
2015-Jan-23 19:33N 48°23' W 004°27'0 0.0
2015-Jan-23 18:33N 48°23' W 004°27'0 0.0
2015-Jan-23 17:33N 48°23' W 004°27'0 0.0
2015-Jan-23 16:33N 48°23' W 004°27'0 0.0
2015-Jan-23 15:33N 48°23' W 004°27'0 0.0
2015-Jan-23 14:33N 48°23' W 004°27'0 0.0
2015-Jan-23 13:33N 48°23' W 004°27'0 0.0
2015-Jan-23 12:33N 48°23' W 004°27'0 0.0
2015-Jan-23 11:33N 48°23' W 004°27'0 0.0
2015-Jan-23 10:33N 48°23' W 004°27'0 0.0
2015-Jan-23 09:33N 48°23' W 004°27'0 0.0
2015-Jan-23 08:33N 48°23' W 004°27'0 0.0
2015-Jan-23 07:33N 48°23' W 004°27'0 0.2
2015-Jan-23 06:34N 48°23' W 004°28'6 5.9
2015-Jan-23 05:34N 48°20' W 004°35'7 6.6
2015-Jan-23 04:34N 48°18' W 004°45'7 6.7
2015-Jan-23 03:33N 48°15' W 004°54'8 7.9
2015-Jan-23 02:33N 48°13' W 005°05'9 9.2
2015-Jan-23 01:33N 48°09' W 005°18'8 8.4
2015-Jan-23 00:33N 48°02' W 005°26'12 3.0
2015-Jan-22 20:33N 48°10' W 005°12'6 6.5
2015-Jan-22 19:33N 48°12' W 005°03'1 1.2
2015-Jan-22 18:33N 48°13' W 005°05'  

Dump ship's entire track history